ZLXY/XIY METAR and TAF weather

Enter ICAO airport designator
Station Type Date Time Source
ZLXY METAR 2020/04/06 16:00 UTC NOAA

ZLXY 061600Z 28001MPS CAVOK 09/05 Q1018 NOSIG


Station Type Date Time Source
ZLXY Decoded METAR 2020/04/06 16:00 UTC NOAA

Xian/Xianyang, China (ZLXY) 34-26N 108-45E
Apr 06, 2020 - 12:00 PM EDT / 2020.04.06 1600 UTC
Wind: from the W (280 degrees) at 2 MPH (2 KT):0
Visibility: greater than 7 mile(s):0
Temperature: 48 F (9 C)
Dew Point: 41 F (5 C)
Relative Humidity: 75%
Pressure (altimeter): 30.06 in. Hg (1018 hPa)
ob: ZLXY 061600Z 28001MPS CAVOK 09/05 Q1018 NOSIG
cycle: 16

Station Type Date Time Source
ZLXY TAF 2020/04/06 18:03 UTC NOAA

TAF ZLXY 061512Z 0618/0718 06003MPS 5000 HZ NSC TX23/0707Z TN08/0622Z

Example: see airport list